Time;durP1;ratioP1;P1;durP2;ratioP2;P2;SDS_P1;SDS_P2;PMS_P1;PMS_P2;Temp;Humidity;BMP_temperature;BMP_pressure;BME280_temperature;BME280_humidity;BME280_pressure;Samples;Min_cycle;Max_cycle;Signal;HPM_P1;HPM_P2
2024/02/16 00:00:11;;;;;;;10.90;8.48;;;;;;;10.36;100.00;101072.63;10350135;28;20055;-71
2024/02/16 00:05:11;;;;;;;11.63;8.40;;;;;;;10.36;100.00;101058.94;10348819;27;20040;-73
2024/02/16 00:10:09;;;;;;;9.65;8.50;;;;;;;10.37;100.00;101063.28;10352865;27;20040;-73
2024/02/16 00:15:06;;;;;;;10.20;8.30;;;;;;;10.27;100.00;101048.69;10346301;27;20117;-72
2024/02/16 00:20:03;;;;;;;9.88;8.82;;;;;;;10.25;100.00;101047.41;10345139;27;20040;-72
2024/02/16 00:25:00;;;;;;;9.68;8.65;;;;;;;10.17;100.00;101043.47;10354034;28;20043;-72
2024/02/16 00:29:57;;;;;;;10.60;8.73;;;;;;;10.17;100.00;101027.06;10342544;28;20049;-73
2024/02/16 00:34:53;;;;;;;9.60;8.63;;;;;;;10.18;100.00;101028.69;10350337;27;20052;-72
2024/02/16 00:39:50;;;;;;;12.27;9.10;;;;;;;10.23;100.00;101020.38;10353722;27;20040;-72
2024/02/16 00:44:46;;;;;;;11.90;9.07;;;;;;;10.20;100.00;101018.25;10352996;27;20044;-72
2024/02/16 00:49:43;;;;;;;9.68;8.77;;;;;;;10.21;100.00;101016.31;10352468;27;20036;-72
2024/02/16 00:54:39;;;;;;;11.05;9.05;;;;;;;10.15;100.00;101012.91;10351290;27;20044;-72
2024/02/16 00:59:36;;;;;;;9.93;8.85;;;;;;;10.09;100.00;101019.59;10351755;27;20094;-73
2024/02/16 01:04:33;;;;;;;10.52;9.02;;;;;;;9.94;100.00;101022.69;10343947;27;20085;-72
2024/02/16 01:09:29;;;;;;;9.77;8.95;;;;;;;9.83;100.00;101020.16;10353606;27;20113;-73
2024/02/16 01:14:26;;;;;;;11.55;9.13;;;;;;;9.77;100.00;101001.44;10351754;27;20136;-70
2024/02/16 01:19:23;;;;;;;9.65;8.73;;;;;;;9.75;100.00;101009.97;10356562;27;20036;-70
2024/02/16 01:24:21;;;;;;;9.57;8.68;;;;;;;9.75;100.00;101012.69;10347438;27;20043;-72
2024/02/16 01:29:17;;;;;;;9.90;8.68;;;;;;;9.70;100.00;101012.78;10358008;27;20074;-72
2024/02/16 01:34:14;;;;;;;9.77;8.80;;;;;;;9.65;100.00;101010.16;10344680;28;20518;-72
2024/02/16 01:39:11;;;;;;;9.32;8.52;;;;;;;9.69;100.00;101001.03;10342243;28;20051;-72
2024/02/16 01:44:08;;;;;;;9.82;8.93;;;;;;;9.67;100.00;100992.34;10352312;27;20039;-71
2024/02/16 01:49:04;;;;;;;11.95;8.93;;;;;;;9.72;100.00;100982.44;10353159;27;20419;-69
2024/02/16 01:54:01;;;;;;;11.65;9.07;;;;;;;9.74;100.00;100991.94;10364208;27;20047;-72
2024/02/16 01:58:58;;;;;;;10.15;8.80;;;;;;;9.75;100.00;101004.50;10358757;27;20040;-71
2024/02/16 02:03:55;;;;;;;9.55;8.60;;;;;;;9.74;100.00;100991.94;10355898;27;20117;-70
2024/02/16 02:08:51;;;;;;;10.52;8.38;;;;;;;9.74;100.00;100975.56;10356674;28;20052;-74
2024/02/16 02:13:48;;;;;;;10.43;9.50;;;;;;;9.69;100.00;100965.53;10350787;27;20051;-72
2024/02/16 02:18:45;;;;;;;9.50;8.68;;;;;;;9.67;100.00;100945.13;10357750;27;20101;-74
2024/02/16 02:23:41;;;;;;;15.07;8.95;;;;;;;9.64;100.00;100948.47;10365483;27;20055;-74
2024/02/16 02:28:38;;;;;;;10.50;8.60;;;;;;;9.65;100.00;100936.44;10374179;27;20035;-74
2024/02/16 02:33:34;;;;;;;10.07;9.07;;;;;;;9.65;100.00;100939.16;10362655;27;20066;-74
2024/02/16 02:38:31;;;;;;;9.80;8.30;;;;;;;9.60;100.00;100937.34;10356752;27;20043;-74
2024/02/16 02:43:27;;;;;;;12.73;8.98;;;;;;;9.55;100.00;100933.94;10350122;27;20462;-74
2024/02/16 02:48:24;;;;;;;13.07;8.60;;;;;;;9.55;100.00;100934.72;10357059;27;20044;-71
2024/02/16 02:53:21;;;;;;;10.38;9.05;;;;;;;9.50;100.00;100923.13;10341313;28;20036;-70
2024/02/16 02:58:18;;;;;;;10.88;9.40;;;;;;;9.50;100.00;100925.84;10350680;27;20098;-71
2024/02/16 03:03:15;;;;;;;13.93;8.98;;;;;;;9.53;100.00;100908.88;10347115;27;20040;-71
2024/02/16 03:08:11;;;;;;;9.95;8.93;;;;;;;9.52;100.00;100899.06;10358316;27;20056;-70
2024/02/16 03:13:09;;;;;;;9.27;8.27;;;;;;;9.55;100.00;100901.97;10353816;27;20117;-70
2024/02/16 03:18:08;;;;;;;9.48;8.50;;;;;;;9.58;100.00;100895.09;10354323;27;20044;-71
2024/02/16 03:23:05;;;;;;;10.73;8.10;;;;;;;9.62;100.00;100893.38;10352490;27;20052;-72
2024/02/16 03:28:02;;;;;;;9.70;8.82;;;;;;;9.59;100.00;100875.69;10346335;27;20049;-71
2024/02/16 03:32:59;;;;;;;8.85;8.05;;;;;;;9.65;100.00;100873.63;10357989;27;20051;-71
2024/02/16 03:37:56;;;;;;;11.63;8.77;;;;;;;9.64;100.00;100872.84;10349488;27;20067;-71
2024/02/16 03:42:52;;;;;;;9.60;8.70;;;;;;;9.63;100.00;100871.25;10353453;27;20043;-71
2024/02/16 03:47:49;;;;;;;11.55;8.82;;;;;;;9.64;100.00;100882.97;10349357;27;20051;-71
2024/02/16 03:52:46;;;;;;;10.13;9.07;;;;;;;9.63;100.00;100893.06;10357153;27;20079;-71
2024/02/16 03:57:42;;;;;;;9.43;8.45;;;;;;;9.66;100.00;100891.66;10354413;27;20036;-71
2024/02/16 04:02:42;;;;;;;10.30;8.32;;;;;;;9.65;100.00;100900.94;10359626;27;20044;-72
2024/02/16 04:07:38;;;;;;;9.30;8.50;;;;;;;9.66;100.00;100902.56;10351786;27;20068;-72
2024/02/16 04:12:36;;;;;;;11.77;9.10;;;;;;;9.68;100.00;100905.81;10354690;27;20044;-71
2024/02/16 04:17:32;;;;;;;9.35;8.55;;;;;;;9.66;100.00;100897.13;10348990;27;20048;-72
2024/02/16 04:22:30;;;;;;;9.45;8.50;;;;;;;9.70;100.00;100900.84;10349136;27;20040;-71
2024/02/16 04:27:26;;;;;;;10.32;8.55;;;;;;;9.71;100.00;100902.44;10351109;27;20040;-71
2024/02/16 04:32:25;;;;;;;9.70;8.90;;;;;;;9.69;100.00;100913.66;10345729;28;20043;-72
2024/02/16 04:37:23;;;;;;;9.75;8.75;;;;;;;9.74;100.00;100903.75;10356152;27;20131;-71
2024/02/16 04:42:19;;;;;;;9.07;8.15;;;;;;;9.75;100.00;100916.28;10358012;27;20043;-71
2024/02/16 04:47:17;;;;;;;9.65;8.65;;;;;;;9.79;100.00;100920.81;10352136;27;20044;-72
2024/02/16 04:52:13;;;;;;;9.35;8.23;;;;;;;9.83;100.00;100940.16;10354957;28;20706;-72
2024/02/16 04:57:10;;;;;;;8.40;7.75;;;;;;;9.81;100.00;100948.63;10343289;27;20135;-71
2024/02/16 05:02:06;;;;;;;11.27;8.02;;;;;;;9.84;100.00;100948.03;10351112;27;20055;-71
2024/02/16 05:07:04;;;;;;;9.13;8.32;;;;;;;9.86;100.00;100945.81;10354031;27;20426;-72
2024/02/16 05:12:00;;;;;;;8.85;8.13;;;;;;;9.89;100.00;100945.19;10348983;27;20272;-71
2024/02/16 05:16:57;;;;;;;10.63;8.88;;;;;;;9.87;100.00;100952.88;10354266;27;20052;-70
2024/02/16 05:21:55;;;;;;;9.82;8.77;;;;;;;9.88;100.00;100953.69;10352898;27;20048;-70
2024/02/16 05:26:52;;;;;;;9.50;8.60;;;;;;;9.90;100.00;100957.72;10351613;27;20097;-72
2024/02/16 05:31:53;;;;;;;8.82;7.90;;;;;;;9.92;100.00;100953.88;10354115;27;20051;-72
2024/02/16 05:36:50;;;;;;;9.35;7.95;;;;;;;9.92;100.00;100948.44;10342257;27;20074;-71
2024/02/16 05:41:46;;;;;;;11.48;9.05;;;;;;;9.87;100.00;100952.88;10344880;27;20043;-72
2024/02/16 05:46:44;;;;;;;10.30;8.15;;;;;;;9.90;100.00;100956.91;10346219;27;20135;-71
2024/02/16 05:51:42;;;;;;;12.20;9.90;;;;;;;9.86;100.00;100962.19;10339557;27;20040;-71
2024/02/16 05:56:39;;;;;;;10.23;9.27;;;;;;;9.77;100.00;100964.03;10349029;27;20043;-71
2024/02/16 06:01:36;;;;;;;10.98;8.75;;;;;;;9.75;100.00;100966.25;10339683;27;20055;-72
2024/02/16 06:06:35;;;;;;;10.10;8.90;;;;;;;9.76;100.00;100973.31;10348191;27;20071;-71
2024/02/16 06:11:32;;;;;;;11.00;9.15;;;;;;;9.79;100.00;100971.91;10345439;27;20464;-71
2024/02/16 06:16:29;;;;;;;10.15;9.18;;;;;;;9.75;100.00;100966.25;10338905;27;20056;-71
2024/02/16 06:21:25;;;;;;;9.95;8.95;;;;;;;9.75;100.00;100971.72;10348612;27;20109;-73
2024/02/16 06:26:22;;;;;;;10.38;9.52;;;;;;;9.64;100.00;100959.41;10346770;27;20047;-73
2024/02/16 06:31:18;;;;;;;9.75;8.80;;;;;;;9.61;100.00;100954.56;10357407;27;20048;-73
2024/02/16 06:36:15;;;;;;;10.70;9.55;;;;;;;9.58;100.00;100963.34;10356997;27;20541;-73
2024/02/16 06:41:12;;;;;;;12.05;9.40;;;;;;;9.55;100.00;100961.22;10354270;27;20419;-73
2024/02/16 06:46:09;;;;;;;12.40;9.55;;;;;;;9.59;100.00;100973.16;10349983;27;20109;-73
2024/02/16 06:51:05;;;;;;;10.60;9.48;;;;;;;9.55;100.00;100975.69;10344290;27;20119;-73
2024/02/16 06:56:05;;;;;;;13.35;10.40;;;;;;;9.55;100.00;100972.16;10353554;27;20573;-72
2024/02/16 07:01:03;;;;;;;10.73;9.82;;;;;;;9.60;100.00;100975.56;10355191;27;20446;-71
2024/02/16 07:06:00;;;;;;;10.52;9.52;;;;;;;9.55;100.00;100972.16;10357891;27;20474;-71
2024/02/16 07:10:56;;;;;;;11.48;10.30;;;;;;;9.48;100.00;100981.53;10345228;27;20044;-71
2024/02/16 07:15:53;;;;;;;10.25;9.32;;;;;;;9.42;100.00;100985.50;10349060;27;20083;-71
2024/02/16 07:20:49;;;;;;;10.35;9.32;;;;;;;9.50;100.00;100991.38;10348410;27;20040;-71
2024/02/16 07:25:48;;;;;;;9.55;8.75;;;;;;;9.61;100.00;101000.97;10349924;28;20051;-72
2024/02/16 07:30:45;;;;;;;9.95;9.15;;;;;;;9.78;100.00;100997.59;10348704;28;20456;-72
2024/02/16 07:35:41;;;;;;;10.00;9.18;;;;;;;9.86;100.00;100999.59;10349736;28;20695;-71
2024/02/16 07:40:38;;;;;;;10.02;9.23;;;;;;;9.88;100.00;101003.66;10353310;27;20044;-72
2024/02/16 07:45:34;;;;;;;10.40;9.60;;;;;;;10.06;100.00;100999.16;10354598;27;20047;-71
2024/02/16 07:50:31;;;;;;;11.20;8.75;;;;;;;10.17;100.00;101010.69;10337031;28;20048;-71
2024/02/16 07:55:28;;;;;;;9.27;8.38;;;;;;;10.20;100.00;101021.00;10348686;27;20101;-71
2024/02/16 08:00:26;;;;;;;9.75;8.02;;;;;;;10.17;100.00;101021.63;10345451;27;20058;-71
2024/02/16 08:05:24;;;;;;;10.25;9.30;;;;;;;10.19;100.00;101029.47;10356555;27;20463;-71
2024/02/16 08:10:21;;;;;;;10.07;9.05;;;;;;;10.27;100.00;101015.91;10369927;27;20093;-73
2024/02/16 08:15:22;;;;;;;10.38;9.35;;;;;;;10.53;100.00;101018.88;10349503;27;20420;-74
2024/02/16 08:20:20;;;;;;;9.35;8.27;;;;;;;10.68;100.00;101009.50;10342987;27;20131;-73
2024/02/16 08:25:17;;;;;;;9.02;8.15;;;;;;;10.83;100.00;101010.25;10357082;27;20812;-71
2024/02/16 08:30:14;;;;;;;9.40;8.10;;;;;;;10.81;100.00;100990.59;10352179;27;20054;-74
2024/02/16 08:35:10;;;;;;;8.18;7.50;;;;;;;10.81;100.00;100971.44;10352213;28;20443;-73
2024/02/16 08:40:07;;;;;;;8.50;7.80;;;;;;;10.81;100.00;100985.13;10344887;27;20068;-71
2024/02/16 08:45:04;;;;;;;9.45;7.55;;;;;;;10.71;100.00;101003.41;10346602;27;20059;-73
2024/02/16 08:50:01;;;;;;;8.20;7.50;;;;;;;10.76;100.00;101005.22;10351997;28;20517;-73
2024/02/16 08:54:57;;;;;;;9.32;7.95;;;;;;;10.81;100.00;100994.13;10350636;28;20108;-73
2024/02/16 08:59:56;;;;;;;9.80;7.65;;;;;;;10.80;100.00;100995.25;10345699;28;20203;-74
2024/02/16 09:04:52;;;;;;;8.43;7.63;;;;;;;10.92;100.00;100992.75;10350493;27;20048;-74
2024/02/16 09:09:49;;;;;;;10.73;7.80;;;;;;;10.92;100.00;100991.97;10348890;27;20090;-73
2024/02/16 09:14:45;;;;;;;11.60;8.13;;;;;;;10.97;100.00;100989.09;10345872;28;20720;-72
2024/02/16 09:19:41;;;;;;;9.10;8.30;;;;;;;11.03;100.00;100993.31;10350082;27;20047;-72
2024/02/16 09:24:39;;;;;;;7.85;7.18;;;;;;;11.07;100.00;100997.03;10348012;27;20396;-74
2024/02/16 09:29:35;;;;;;;8.50;7.70;;;;;;;11.20;100.00;100997.25;10346728;28;20101;-73
2024/02/16 09:34:32;;;;;;;9.50;7.93;;;;;;;11.11;100.00;100995.25;10334485;27;20052;-72
2024/02/16 09:39:30;;;;;;;9.07;8.30;;;;;;;11.20;100.00;100983.56;10346662;27;20062;-72
2024/02/16 09:44:28;;;;;;;9.27;8.45;;;;;;;11.36;100.00;100990.22;10344519;27;20040;-73
2024/02/16 09:49:24;;;;;;;9.75;8.73;;;;;;;11.43;100.00;100996.06;10347250;27;20040;-73
2024/02/16 09:54:38;;;;;;;8.63;7.82;;;;;;;11.44;100.00;100992.22;10341068;27;20039;-73
2024/02/16 09:59:35;;;;;;;8.65;7.93;;;;;;;11.60;100.00;101000.78;10345793;27;20046;-74
2024/02/16 10:04:32;;;;;;;8.68;7.88;;;;;;;11.70;100.00;100988.75;10342667;27;20297;-73
2024/02/16 10:09:33;;;;;;;8.48;7.50;;;;;;;11.85;100.00;100991.00;10357027;27;20051;-73
2024/02/16 10:14:31;;;;;;;10.35;7.50;;;;;;;11.91;100.00;100995.25;10347714;27;20060;-70
2024/02/16 10:19:42;;;;;;;9.27;7.95;;;;;;;12.16;100.00;100992.84;10353383;27;20122;-73
2024/02/16 10:24:40;;;;;;;9.05;6.88;;;;;;;12.54;100.00;100990.25;10353674;27;20131;-73
2024/02/16 10:29:39;;;;;;;7.30;6.60;;;;;;;13.05;100.00;100977.56;10350485;27;20049;-73
2024/02/16 10:34:39;;;;;;;7.50;6.80;;;;;;;13.09;100.00;100983.22;10350540;27;20047;-73
2024/02/16 10:39:38;;;;;;;7.35;6.70;;;;;;;13.05;100.00;100995.97;10351816;27;20078;-72
2024/02/16 10:44:35;;;;;;;7.53;6.82;;;;;;;12.84;100.00;100985.69;10350064;27;20032;-73
2024/02/16 10:49:32;;;;;;;7.75;7.05;;;;;;;12.82;100.00;100996.19;10359864;27;20044;-72
2024/02/16 10:54:32;;;;;;;8.65;6.75;;;;;;;12.93;100.00;100996.66;10354288;27;20052;-74
2024/02/16 10:59:40;;;;;;;10.15;8.52;;;;;;;13.15;100.00;100992.88;10353096;27;20093;-74
2024/02/16 11:04:39;;;;;;;8.23;7.40;;;;;;;13.28;100.00;100984.78;10349916;27;20040;-73
2024/02/16 11:09:38;;;;;;;9.23;8.07;;;;;;;13.46;100.00;100986.31;10349669;27;20454;-72
2024/02/16 11:14:37;;;;;;;9.80;8.55;;;;;;;13.56;100.00;100974.94;10348347;28;20036;-71
2024/02/16 11:19:34;;;;;;;9.07;8.23;;;;;;;13.74;100.00;100974.84;10358533;27;20043;-71
2024/02/16 11:24:32;;;;;;;8.00;7.20;;;;;;;13.87;100.00;100971.03;10347585;27;20059;-73
2024/02/16 11:29:32;;;;;;;7.78;6.63;;;;;;;14.02;100.00;100956.72;10356905;27;20051;-75
2024/02/16 11:34:29;;;;;;;10.32;7.53;;;;;;;14.03;100.00;100955.56;10357381;27;20477;-74
2024/02/16 11:39:27;;;;;;;11.27;6.97;;;;;;;13.95;100.00;100964.69;10341098;28;20135;-73
2024/02/16 11:44:24;;;;;;;7.72;6.97;;;;;;;13.94;100.00;100962.25;10349043;27;20059;-74
2024/02/16 11:49:20;;;;;;;9.00;7.00;;;;;;;13.91;100.00;100963.75;10340879;27;20048;-73
2024/02/16 11:54:17;;;;;;;8.30;7.60;;;;;;;13.94;100.00;100965.81;10352956;27;20033;-74
2024/02/16 11:59:15;;;;;;;7.65;6.93;;;;;;;14.12;100.00;100972.00;10349573;27;20050;-73
2024/02/16 12:04:23;;;;;;;8.02;7.35;;;;;;;14.23;100.00;100991.66;10339619;28;20048;-75
2024/02/16 12:09:20;;;;;;;7.57;6.97;;;;;;;14.18;100.00;100964.34;10350599;27;20055;-73
2024/02/16 12:14:18;;;;;;;8.23;7.43;;;;;;;14.19;100.00;100968.72;10349994;27;20059;-74
2024/02/16 12:19:15;;;;;;;8.80;7.70;;;;;;;14.19;100.00;100968.72;10344550;27;20759;-74
2024/02/16 12:24:11;;;;;;;16.00;7.90;;;;;;;14.21;100.00;100955.44;10340989;28;20064;-73
2024/02/16 12:29:12;;;;;;;9.45;6.75;;;;;;;14.28;100.00;100966.69;10350044;27;20056;-73
2024/02/16 12:34:09;;;;;;;15.32;7.38;;;;;;;14.36;100.00;100974.03;10350872;27;20055;-74
2024/02/16 12:39:06;;;;;;;9.50;7.80;;;;;;;14.39;100.00;100978.91;10347235;27;20487;-73
2024/02/16 12:44:02;;;;;;;8.05;7.25;;;;;;;14.26;100.00;100968.97;10347840;27;20044;-74
2024/02/16 12:48:59;;;;;;;10.57;7.65;;;;;;;14.13;100.00;100986.53;10345593;28;20457;-74
2024/02/16 12:53:56;;;;;;;10.70;7.57;;;;;;;14.22;100.00;100981.78;10343023;27;20051;-75
2024/02/16 12:58:52;;;;;;;9.57;7.72;;;;;;;14.18;100.00;100995.41;10364153;27;20056;-74
2024/02/16 13:03:50;;;;;;;11.10;8.05;;;;;;;14.05;100.00;101002.75;10354381;27;20043;-74
2024/02/16 13:08:46;;;;;;;9.63;8.25;;;;;;;14.01;100.00;101001.03;10347509;27;20057;-73
2024/02/16 13:13:43;;;;;;;11.43;8.30;;;;;;;13.91;100.00;100991.22;10349590;27;20066;-73
2024/02/16 13:18:41;;;;;;;10.38;9.32;;;;;;;13.95;100.00;101005.91;10344391;27;20044;-73
2024/02/16 13:23:37;;;;;;;9.27;8.32;;;;;;;13.96;100.00;101003.97;10348396;27;20744;-74
2024/02/16 13:28:34;;;;;;;9.32;8.40;;;;;;;13.88;100.00;101008.41;10335142;28;20043;-74
2024/02/16 13:33:30;;;;;;;12.75;8.75;;;;;;;13.87;100.00;101017.75;10351562;27;20048;-73
2024/02/16 13:38:28;;;;;;;9.65;8.52;;;;;;;13.74;100.00;101024.28;10351224;27;20522;-73
2024/02/16 13:43:25;;;;;;;13.23;9.32;;;;;;;13.74;100.00;101018.81;10349885;27;20113;-73
2024/02/16 13:48:21;;;;;;;10.98;9.27;;;;;;;13.76;100.00;101033.00;10348265;27;20047;-73
2024/02/16 13:53:18;;;;;;;12.77;9.98;;;;;;;13.74;100.00;101024.28;10347423;27;20036;-73
2024/02/16 13:58:17;;;;;;;10.73;8.88;;;;;;;13.78;100.00;101030.75;10354187;27;20155;-74
2024/02/16 14:03:14;;;;;;;12.55;9.35;;;;;;;13.79;100.00;101035.91;10349756;27;20048;-74
2024/02/16 14:08:12;;;;;;;11.23;10.07;;;;;;;13.78;100.00;101033.50;10361058;27;20074;-76
2024/02/16 14:13:09;;;;;;;11.00;8.68;;;;;;;13.83;100.00;101036.88;10344090;27;20042;-75
2024/02/16 14:18:07;;;;;;;10.75;9.18;;;;;;;13.90;100.00;101044.56;10345758;28;20048;-74
2024/02/16 14:23:13;;;;;;;9.77;8.88;;;;;;;13.90;100.00;101055.56;10340015;27;20097;-73
2024/02/16 14:28:09;;;;;;;12.90;9.55;;;;;;;13.85;100.00;101064.00;10348693;27;20134;-73
2024/02/16 14:33:06;;;;;;;19.38;9.50;;;;;;;13.76;100.00;101060.50;10348050;27;20508;-73
2024/02/16 14:38:04;;;;;;;10.88;9.73;;;;;;;13.59;100.00;101073.19;10355400;27;20140;-73
2024/02/16 14:43:01;;;;;;;12.20;9.52;;;;;;;13.37;100.00;101087.97;10341461;27;20036;-73
2024/02/16 14:47:58;;;;;;;13.15;11.25;;;;;;;12.89;100.00;101110.16;10343744;27;20045;-73
2024/02/16 14:52:54;;;;;;;11.48;10.15;;;;;;;12.78;100.00;101124.19;10346819;27;20071;-73
2024/02/16 14:57:51;;;;;;;12.48;11.35;;;;;;;12.76;100.00;101140.16;10352638;27;20055;-73
2024/02/16 15:02:48;;;;;;;12.70;11.50;;;;;;;12.77;100.00;101138.25;10345130;27;20041;-73
2024/02/16 15:07:49;;;;;;;13.75;11.25;;;;;;;12.55;100.00;101155.63;10347791;27;20044;-72
2024/02/16 15:12:46;;;;;;;16.13;11.45;;;;;;;12.51;100.00;101157.41;10344729;27;20067;-72
2024/02/16 15:17:43;;;;;;;17.70;13.38;;;;;;;12.33;100.00;101151.88;10342445;27;20062;-72
2024/02/16 15:22:42;;;;;;;14.55;11.73;;;;;;;12.24;100.00;101148.31;10357472;27;20135;-72
2024/02/16 15:27:48;;;;;;;14.98;12.55;;;;;;;12.17;100.00;101156.19;10353038;27;20563;-72
2024/02/16 15:32:45;;;;;;;13.07;11.88;;;;;;;12.13;100.00;101155.22;10349819;27;20102;-73
2024/02/16 15:37:42;;;;;;;11.98;10.88;;;;;;;12.00;100.00;101159.69;10355231;27;20066;-71
2024/02/16 15:42:39;;;;;;;15.02;12.40;;;;;;;11.96;100.00;101162.25;10341006;28;20048;-72
2024/02/16 15:47:35;;;;;;;12.98;11.65;;;;;;;11.90;100.00;101159.97;10338696;28;20507;-73
2024/02/16 15:52:32;;;;;;;16.08;12.50;;;;;;;11.85;100.00;101171.03;10352623;27;20047;-72
2024/02/16 15:57:29;;;;;;;13.30;11.40;;;;;;;11.82;100.00;101172.47;10337505;27;20040;-72
2024/02/16 16:02:25;;;;;;;13.30;12.20;;;;;;;11.78;100.00;101188.72;10349738;27;20059;-73
2024/02/16 16:07:22;;;;;;;13.15;11.73;;;;;;;11.85;100.00;101206.66;10341260;28;20427;-73
2024/02/16 16:12:19;;;;;;;14.13;11.43;;;;;;;11.88;100.00;101209.63;10346892;27;20048;-73
2024/02/16 16:17:18;;;;;;;11.98;10.93;;;;;;;11.85;100.00;101221.16;10353203;27;20072;-73
2024/02/16 16:22:15;;;;;;;11.82;10.82;;;;;;;11.83;100.00;101239.84;10350354;27;20713;-75
2024/02/16 16:27:12;;;;;;;9.88;9.02;;;;;;;11.48;100.00;101256.03;10358245;27;20043;-72
2024/02/16 16:32:09;;;;;;;9.82;8.90;;;;;;;11.23;100.00;101259.38;10356498;27;20043;-72
2024/02/16 16:37:07;;;;;;;9.88;7.82;;;;;;;11.16;100.00;101260.63;10354566;27;20185;-73
2024/02/16 16:42:04;;;;;;;8.80;8.00;;;;;;;10.99;100.00;101237.75;10346827;28;20531;-73
2024/02/16 16:47:01;;;;;;;11.10;8.65;;;;;;;10.93;100.00;101234.31;10345825;28;20055;-73
2024/02/16 16:51:58;;;;;;;8.27;7.50;;;;;;;10.91;100.00;101236.56;10353964;27;20517;-73
2024/02/16 16:56:54;;;;;;;8.63;7.80;;;;;;;10.83;100.00;101246.28;10337450;27;20511;-73
2024/02/16 17:01:51;;;;;;;8.55;7.55;;;;;;;10.77;100.00;101233.03;10343858;28;20093;-72
2024/02/16 17:06:48;;;;;;;6.70;6.10;;;;;;;10.58;100.00;101216.75;10347862;27;20040;-73
2024/02/16 17:11:44;;;;;;;6.55;5.88;;;;;;;10.43;100.00;101237.81;10346475;27;20671;-72
2024/02/16 17:16:41;;;;;;;5.28;4.78;;;;;;;10.37;100.00;101235.50;10344238;27;20040;-72
2024/02/16 17:21:37;;;;;;;5.47;4.97;;;;;;;10.37;100.00;101235.50;10343294;27;20032;-71
2024/02/16 17:26:34;;;;;;;4.57;4.18;;;;;;;10.22;100.00;101237.38;10342584;27;20054;-71
2024/02/16 17:31:31;;;;;;;5.03;4.60;;;;;;;10.25;100.00;101242.22;10341295;27;20055;-71
2024/02/16 17:36:27;;;;;;;4.53;4.13;;;;;;;10.20;100.00;101249.72;10347020;27;20040;-70
2024/02/16 17:41:24;;;;;;;4.75;4.35;;;;;;;10.16;100.00;101254.97;10336693;28;20066;-70
2024/02/16 17:46:21;;;;;;;5.50;5.00;;;;;;;10.21;100.00;101265.84;10336246;28;20613;-73
2024/02/16 17:51:17;;;;;;;6.10;5.60;;;;;;;10.15;100.00;101269.75;10346669;27;20077;-72
2024/02/16 17:56:13;;;;;;;5.53;5.00;;;;;;;10.11;100.00;101285.94;10345744;28;20032;-71
2024/02/16 18:01:11;;;;;;;5.65;5.15;;;;;;;10.09;100.00;101281.88;10345548;28;20052;-71
2024/02/16 18:06:08;;;;;;;5.63;5.13;;;;;;;10.04;100.00;101301.09;10327516;27;20068;-71
2024/02/16 18:11:04;;;;;;;6.57;5.95;;;;;;;10.05;100.00;101309.00;10349469;27;20044;-72
2024/02/16 18:16:01;;;;;;;5.05;4.65;;;;;;;9.97;100.00;101317.06;10345517;27;20514;-71
2024/02/16 18:20:57;;;;;;;6.53;5.93;;;;;;;10.02;100.00;101319.72;10351474;27;20055;-72
2024/02/16 18:25:54;;;;;;;6.80;6.20;;;;;;;10.02;100.00;101336.91;10347484;27;20071;-71
2024/02/16 18:30:51;;;;;;;6.47;5.88;;;;;;;9.98;100.00;101362.41;10350554;27;20040;-73
2024/02/16 18:35:47;;;;;;;7.00;6.40;;;;;;;9.98;100.00;101376.06;10357844;27;20428;-73
2024/02/16 18:40:44;;;;;;;7.03;6.43;;;;;;;9.98;100.00;101400.63;10335964;28;20047;-73
2024/02/16 18:45:40;;;;;;;6.30;5.80;;;;;;;9.99;100.00;101424.13;10355111;27;20047;-72
2024/02/16 18:50:37;;;;;;;6.97;6.38;;;;;;;9.97;100.00;101442.75;10352553;27;20523;-72
2024/02/16 18:55:34;;;;;;;7.30;6.70;;;;;;;9.98;100.00;101471.66;10357907;27;20039;-74
2024/02/16 19:00:31;;;;;;;7.07;6.47;;;;;;;10.01;100.00;101482.84;10347000;27;20047;-73
2024/02/16 19:05:28;;;;;;;7.30;6.60;;;;;;;9.99;100.00;101500.63;10357045;27;20059;-72
2024/02/16 19:10:28;;;;;;;7.95;7.25;;;;;;;9.97;100.00;101513.78;10349380;27;20474;-72
2024/02/16 19:15:29;;;;;;;7.05;6.45;;;;;;;9.81;100.00;101522.16;10353471;27;20036;-70
2024/02/16 19:20:26;;;;;;;8.40;7.60;;;;;;;9.77;100.00;101537.53;10352031;27;20044;-72
2024/02/16 19:25:23;;;;;;;7.97;7.28;;;;;;;9.85;100.00;101550.50;10348675;27;20056;-72
2024/02/16 19:30:19;;;;;;;7.82;7.10;;;;;;;9.83;100.00;101568.31;10331358;27;20592;-72
2024/02/16 19:35:22;;;;;;;8.20;7.47;;;;;;;9.90;100.00;101574.22;10335376;28;20041;-72
2024/02/16 19:40:19;;;;;;;8.27;7.57;;;;;;;9.93;100.00;101589.22;10328810;27;20121;-71
2024/02/16 19:45:18;;;;;;;8.90;8.10;;;;;;;9.96;100.00;101594.13;10343415;27;20040;-72
2024/02/16 19:50:25;;;;;;;8.82;8.13;;;;;;;9.95;100.00;101596.00;10340273;27;20048;-72
2024/02/16 19:55:21;;;;;;;9.20;8.35;;;;;;;10.03;100.00;101600.03;10344690;27;20052;-72
2024/02/16 20:00:20;;;;;;;10.23;9.18;;;;;;;10.06;100.00;101615.84;10349330;27;20044;-71
2024/02/16 20:05:17;;;;;;;10.50;9.43;;;;;;;10.07;100.00;101633.84;10345143;27;20071;-72
2024/02/16 20:10:15;;;;;;;11.32;10.13;;;;;;;10.07;100.00;101639.31;10352629;27;20134;-72
2024/02/16 20:15:11;;;;;;;10.77;9.60;;;;;;;9.97;100.00;101644.91;10358090;27;20048;-72
2024/02/16 20:20:09;;;;;;;12.43;9.93;;;;;;;9.97;100.00;101655.81;10342620;27;20079;-72
2024/02/16 20:25:07;;;;;;;11.40;10.30;;;;;;;9.92;100.00;101675.00;10341923;27;20080;-71
2024/02/16 20:30:03;;;;;;;11.70;10.55;;;;;;;9.86;100.00;101680.53;10348380;27;20070;-72
2024/02/16 20:35:04;;;;;;;12.40;11.20;;;;;;;9.82;100.00;101687.69;10336619;28;20246;-72
2024/02/16 20:40:01;;;;;;;13.90;10.82;;;;;;;9.83;100.00;101688.47;10340729;28;20507;-72
2024/02/16 20:44:58;;;;;;;13.90;11.40;;;;;;;9.86;100.00;101688.72;10348604;28;20048;-71
2024/02/16 20:49:56;;;;;;;13.02;11.75;;;;;;;9.79;100.00;101690.97;10341452;27;20048;-72
2024/02/16 20:54:53;;;;;;;14.63;11.43;;;;;;;9.86;100.00;101699.66;10346007;27;20051;-72
2024/02/16 20:59:49;;;;;;;14.98;12.52;;;;;;;9.78;100.00;101708.47;10349326;27;20051;-72
2024/02/16 21:04:46;;;;;;;14.98;12.70;;;;;;;9.81;100.00;101702.41;10335602;28;20056;-72
2024/02/16 21:09:43;;;;;;;15.55;12.93;;;;;;;9.77;100.00;101708.75;10339599;28;20554;-72
2024/02/16 21:14:40;;;;;;;13.80;12.13;;;;;;;9.79;100.00;101710.09;10337113;28;20416;-71
2024/02/16 21:19:36;;;;;;;17.65;12.52;;;;;;;9.79;100.00;101710.09;10342299;27;20071;-71
2024/02/16 21:24:33;;;;;;;19.50;14.40;;;;;;;9.82;100.00;101714.19;10343870;27;20093;-71
2024/02/16 21:29:29;;;;;;;17.00;14.15;;;;;;;9.72;100.00;101712.34;10352784;27;20438;-71
2024/02/16 21:34:26;;;;;;;16.50;12.52;;;;;;;9.63;100.00;101700.41;10347379;28;20580;-72
2024/02/16 21:39:24;;;;;;;13.77;11.40;;;;;;;9.61;100.00;101702.63;10339734;28;20126;-72
2024/02/16 21:44:21;;;;;;;14.30;11.50;;;;;;;9.56;100.00;101705.38;10347937;27;20098;-70
2024/02/16 21:49:19;;;;;;;15.68;12.02;;;;;;;9.55;100.00;101681.94;10337554;27;20055;-72
2024/02/16 21:54:16;;;;;;;17.30;13.02;;;;;;;9.62;100.00;101694.16;10340397;27;20044;-71
2024/02/16 21:59:13;;;;;;;19.33;14.70;;;;;;;9.67;100.00;101685.91;10347391;27;20051;-72
2024/02/16 22:04:10;;;;;;;17.67;12.60;;;;;;;9.79;100.00;101693.69;10354573;27;20040;-72
2024/02/16 22:09:07;;;;;;;17.90;12.00;;;;;;;9.81;100.00;101707.88;10352434;27;20048;-71
2024/02/16 22:14:04;;;;;;;17.58;12.30;;;;;;;9.84;100.00;101720.16;10345553;27;20032;-71
2024/02/16 22:19:00;;;;;;;14.80;12.20;;;;;;;9.85;100.00;101730.78;10347975;27;20161;-71
2024/02/16 22:23:58;;;;;;;15.15;12.18;;;;;;;9.85;100.00;101752.66;10351352;27;20097;-72